sensor_id;sensor_type;location;lat;lon;timestamp;P1;durP1;ratioP1;P2;durP2;ratioP2
12681;SDS011;6405;59.208;18.216;2023-04-03T00:00:32;6.70;;;1.70;;
12681;SDS011;6405;59.208;18.216;2023-04-03T00:02:58;4.33;;;1.27;;
12681;SDS011;6405;59.208;18.216;2023-04-03T00:05:23;9.30;;;1.33;;
12681;SDS011;6405;59.208;18.216;2023-04-03T00:07:49;4.97;;;1.30;;
12681;SDS011;6405;59.208;18.216;2023-04-03T00:10:15;6.80;;;1.40;;
12681;SDS011;6405;59.208;18.216;2023-04-03T00:12:41;2.77;;;1.20;;
12681;SDS011;6405;59.208;18.216;2023-04-03T00:15:07;6.47;;;1.50;;
12681;SDS011;6405;59.208;18.216;2023-04-03T00:17:33;4.50;;;1.30;;
12681;SDS011;6405;59.208;18.216;2023-04-03T00:19:58;6.03;;;1.47;;
12681;SDS011;6405;59.208;18.216;2023-04-03T00:22:24;4.93;;;1.30;;
12681;SDS011;6405;59.208;18.216;2023-04-03T00:24:51;5.40;;;1.27;;
12681;SDS011;6405;59.208;18.216;2023-04-03T00:27:17;3.90;;;1.40;;
12681;SDS011;6405;59.208;18.216;2023-04-03T00:29:42;5.67;;;1.40;;
12681;SDS011;6405;59.208;18.216;2023-04-03T00:32:08;8.30;;;1.93;;
12681;SDS011;6405;59.208;18.216;2023-04-03T00:34:34;8.93;;;1.50;;
12681;SDS011;6405;59.208;18.216;2023-04-03T00:36:59;3.43;;;1.13;;
12681;SDS011;6405;59.208;18.216;2023-04-03T00:39:25;4.83;;;1.30;;
12681;SDS011;6405;59.208;18.216;2023-04-03T00:41:52;7.50;;;1.40;;
12681;SDS011;6405;59.208;18.216;2023-04-03T00:46:58;4.00;;;1.40;;
12681;SDS011;6405;59.208;18.216;2023-04-03T00:49:25;7.90;;;1.30;;
12681;SDS011;6405;59.208;18.216;2023-04-03T00:51:52;3.17;;;1.17;;
12681;SDS011;6405;59.208;18.216;2023-04-03T00:54:18;4.27;;;1.30;;
12681;SDS011;6405;59.208;18.216;2023-04-03T00:56:44;7.40;;;1.80;;
12681;SDS011;6405;59.208;18.216;2023-04-03T00:59:12;6.23;;;1.83;;
12681;SDS011;6405;59.208;18.216;2023-04-03T01:01:47;7.33;;;1.53;;
12681;SDS011;6405;59.208;18.216;2023-04-03T01:04:32;4.03;;;1.53;;
12681;SDS011;6405;59.208;18.216;2023-04-03T01:07:02;7.27;;;1.57;;
12681;SDS011;6405;59.208;18.216;2023-04-03T01:09:31;3.00;;;1.17;;
12681;SDS011;6405;59.208;18.216;2023-04-03T01:12:17;5.13;;;1.60;;
12681;SDS011;6405;59.208;18.216;2023-04-03T01:14:44;8.00;;;1.40;;
12681;SDS011;6405;59.208;18.216;2023-04-03T01:17:27;4.50;;;1.30;;
12681;SDS011;6405;59.208;18.216;2023-04-03T01:20:08;4.87;;;1.50;;
12681;SDS011;6405;59.208;18.216;2023-04-03T01:25:38;8.10;;;1.40;;
12681;SDS011;6405;59.208;18.216;2023-04-03T01:28:07;4.13;;;1.27;;
12681;SDS011;6405;59.208;18.216;2023-04-03T01:30:44;2.13;;;1.30;;
12681;SDS011;6405;59.208;18.216;2023-04-03T01:33:18;4.17;;;1.60;;
12681;SDS011;6405;59.208;18.216;2023-04-03T01:35:43;4.63;;;1.20;;
12681;SDS011;6405;59.208;18.216;2023-04-03T01:38:09;7.93;;;1.80;;
12681;SDS011;6405;59.208;18.216;2023-04-03T01:40:35;8.63;;;1.67;;
12681;SDS011;6405;59.208;18.216;2023-04-03T01:43:01;4.93;;;1.23;;
12681;SDS011;6405;59.208;18.216;2023-04-03T01:45:26;4.57;;;1.43;;
12681;SDS011;6405;59.208;18.216;2023-04-03T01:47:52;7.40;;;1.30;;
12681;SDS011;6405;59.208;18.216;2023-04-03T01:50:18;5.77;;;1.57;;
12681;SDS011;6405;59.208;18.216;2023-04-03T01:52:43;3.33;;;1.20;;
12681;SDS011;6405;59.208;18.216;2023-04-03T01:55:09;5.20;;;1.30;;
12681;SDS011;6405;59.208;18.216;2023-04-03T01:57:35;9.93;;;2.37;;
12681;SDS011;6405;59.208;18.216;2023-04-03T02:00:00;5.10;;;1.23;;
12681;SDS011;6405;59.208;18.216;2023-04-03T02:02:26;3.63;;;1.20;;
12681;SDS011;6405;59.208;18.216;2023-04-03T02:04:51;5.13;;;1.10;;
12681;SDS011;6405;59.208;18.216;2023-04-03T02:07:17;5.57;;;1.40;;
12681;SDS011;6405;59.208;18.216;2023-04-03T02:09:42;5.87;;;1.37;;
12681;SDS011;6405;59.208;18.216;2023-04-03T02:12:08;7.37;;;1.40;;
12681;SDS011;6405;59.208;18.216;2023-04-03T02:14:34;4.77;;;1.67;;
12681;SDS011;6405;59.208;18.216;2023-04-03T02:17:00;4.20;;;1.23;;
12681;SDS011;6405;59.208;18.216;2023-04-03T02:19:30;4.37;;;1.53;;
12681;SDS011;6405;59.208;18.216;2023-04-03T02:21:56;3.87;;;1.40;;
12681;SDS011;6405;59.208;18.216;2023-04-03T02:24:21;2.43;;;1.13;;
12681;SDS011;6405;59.208;18.216;2023-04-03T02:26:47;7.10;;;1.50;;
12681;SDS011;6405;59.208;18.216;2023-04-03T02:29:13;4.67;;;1.50;;
12681;SDS011;6405;59.208;18.216;2023-04-03T02:31:38;8.30;;;1.60;;
12681;SDS011;6405;59.208;18.216;2023-04-03T02:34:04;5.93;;;1.40;;
12681;SDS011;6405;59.208;18.216;2023-04-03T02:36:30;2.37;;;1.20;;
12681;SDS011;6405;59.208;18.216;2023-04-03T02:38:56;7.10;;;1.30;;
12681;SDS011;6405;59.208;18.216;2023-04-03T02:41:22;6.80;;;1.73;;
12681;SDS011;6405;59.208;18.216;2023-04-03T02:43:47;5.07;;;1.33;;
12681;SDS011;6405;59.208;18.216;2023-04-03T02:46:13;5.83;;;1.50;;
12681;SDS011;6405;59.208;18.216;2023-04-03T02:48:40;5.63;;;1.40;;
12681;SDS011;6405;59.208;18.216;2023-04-03T02:51:06;4.90;;;1.57;;
12681;SDS011;6405;59.208;18.216;2023-04-03T02:53:31;7.97;;;1.43;;
12681;SDS011;6405;59.208;18.216;2023-04-03T02:55:57;4.33;;;1.33;;
12681;SDS011;6405;59.208;18.216;2023-04-03T02:58:22;9.63;;;1.40;;
12681;SDS011;6405;59.208;18.216;2023-04-03T03:00:48;4.37;;;1.30;;
12681;SDS011;6405;59.208;18.216;2023-04-03T03:03:14;9.63;;;1.50;;
12681;SDS011;6405;59.208;18.216;2023-04-03T03:05:40;7.87;;;1.40;;
12681;SDS011;6405;59.208;18.216;2023-04-03T03:08:05;4.57;;;1.43;;
12681;SDS011;6405;59.208;18.216;2023-04-03T03:10:31;11.03;;;1.83;;
12681;SDS011;6405;59.208;18.216;2023-04-03T03:12:57;5.47;;;1.27;;
12681;SDS011;6405;59.208;18.216;2023-04-03T03:15:22;5.20;;;1.50;;
12681;SDS011;6405;59.208;18.216;2023-04-03T03:17:48;5.27;;;1.77;;
12681;SDS011;6405;59.208;18.216;2023-04-03T03:20:13;3.43;;;1.27;;
12681;SDS011;6405;59.208;18.216;2023-04-03T03:22:40;3.37;;;1.40;;
12681;SDS011;6405;59.208;18.216;2023-04-03T03:25:06;5.50;;;1.33;;
12681;SDS011;6405;59.208;18.216;2023-04-03T03:27:32;6.50;;;1.70;;
12681;SDS011;6405;59.208;18.216;2023-04-03T03:29:57;4.67;;;1.47;;
12681;SDS011;6405;59.208;18.216;2023-04-03T03:32:23;5.00;;;1.33;;
12681;SDS011;6405;59.208;18.216;2023-04-03T03:34:49;7.73;;;1.73;;
12681;SDS011;6405;59.208;18.216;2023-04-03T03:37:15;8.90;;;1.50;;
12681;SDS011;6405;59.208;18.216;2023-04-03T03:39:40;7.53;;;1.43;;
12681;SDS011;6405;59.208;18.216;2023-04-03T03:42:06;6.50;;;1.60;;
12681;SDS011;6405;59.208;18.216;2023-04-03T03:44:31;7.03;;;1.87;;
12681;SDS011;6405;59.208;18.216;2023-04-03T03:46:57;5.80;;;1.20;;
12681;SDS011;6405;59.208;18.216;2023-04-03T03:49:23;5.60;;;1.50;;
12681;SDS011;6405;59.208;18.216;2023-04-03T03:51:48;4.20;;;1.30;;
12681;SDS011;6405;59.208;18.216;2023-04-03T03:54:15;6.17;;;1.87;;
12681;SDS011;6405;59.208;18.216;2023-04-03T03:56:41;7.30;;;1.40;;
12681;SDS011;6405;59.208;18.216;2023-04-03T03:59:07;5.40;;;1.50;;
12681;SDS011;6405;59.208;18.216;2023-04-03T04:01:32;5.50;;;1.30;;
12681;SDS011;6405;59.208;18.216;2023-04-03T04:03:58;10.70;;;1.73;;
12681;SDS011;6405;59.208;18.216;2023-04-03T04:06:24;4.93;;;1.60;;
12681;SDS011;6405;59.208;18.216;2023-04-03T04:08:50;7.97;;;1.53;;
12681;SDS011;6405;59.208;18.216;2023-04-03T04:11:15;6.07;;;1.50;;
12681;SDS011;6405;59.208;18.216;2023-04-03T04:13:41;4.43;;;1.40;;
12681;SDS011;6405;59.208;18.216;2023-04-03T04:16:07;5.03;;;1.80;;
12681;SDS011;6405;59.208;18.216;2023-04-03T04:18:33;3.17;;;1.17;;
12681;SDS011;6405;59.208;18.216;2023-04-03T04:20:59;9.53;;;2.20;;
12681;SDS011;6405;59.208;18.216;2023-04-03T04:23:25;5.13;;;2.00;;
12681;SDS011;6405;59.208;18.216;2023-04-03T04:25:51;14.53;;;2.33;;
12681;SDS011;6405;59.208;18.216;2023-04-03T04:28:16;5.50;;;2.00;;
12681;SDS011;6405;59.208;18.216;2023-04-03T04:30:43;4.17;;;2.00;;
12681;SDS011;6405;59.208;18.216;2023-04-03T04:33:08;7.63;;;1.90;;
12681;SDS011;6405;59.208;18.216;2023-04-03T04:35:35;5.63;;;2.07;;
12681;SDS011;6405;59.208;18.216;2023-04-03T04:38:00;9.37;;;1.80;;
12681;SDS011;6405;59.208;18.216;2023-04-03T04:40:26;11.30;;;2.27;;
12681;SDS011;6405;59.208;18.216;2023-04-03T04:42:52;6.87;;;2.43;;
12681;SDS011;6405;59.208;18.216;2023-04-03T04:45:18;11.17;;;2.00;;
12681;SDS011;6405;59.208;18.216;2023-04-03T04:47:44;7.53;;;2.10;;
12681;SDS011;6405;59.208;18.216;2023-04-03T04:50:09;9.97;;;1.97;;
12681;SDS011;6405;59.208;18.216;2023-04-03T04:52:36;11.57;;;2.17;;
12681;SDS011;6405;59.208;18.216;2023-04-03T04:55:02;9.83;;;2.60;;
12681;SDS011;6405;59.208;18.216;2023-04-03T04:57:28;11.17;;;2.90;;
12681;SDS011;6405;59.208;18.216;2023-04-03T04:59:54;9.17;;;2.43;;
12681;SDS011;6405;59.208;18.216;2023-04-03T05:02:19;9.50;;;2.40;;
12681;SDS011;6405;59.208;18.216;2023-04-03T05:04:45;9.07;;;2.67;;
12681;SDS011;6405;59.208;18.216;2023-04-03T05:07:11;16.37;;;2.80;;
12681;SDS011;6405;59.208;18.216;2023-04-03T05:09:36;11.17;;;2.67;;
12681;SDS011;6405;59.208;18.216;2023-04-03T05:12:02;9.00;;;2.33;;
12681;SDS011;6405;59.208;18.216;2023-04-03T05:14:28;5.67;;;2.47;;
12681;SDS011;6405;59.208;18.216;2023-04-03T05:16:55;12.40;;;2.43;;
12681;SDS011;6405;59.208;18.216;2023-04-03T05:19:21;10.77;;;1.90;;
12681;SDS011;6405;59.208;18.216;2023-04-03T05:21:47;10.53;;;2.43;;
12681;SDS011;6405;59.208;18.216;2023-04-03T05:24:13;10.87;;;2.67;;
12681;SDS011;6405;59.208;18.216;2023-04-03T05:26:41;5.20;;;2.30;;
12681;SDS011;6405;59.208;18.216;2023-04-03T05:29:07;11.63;;;2.60;;
12681;SDS011;6405;59.208;18.216;2023-04-03T05:31:33;14.60;;;2.80;;
12681;SDS011;6405;59.208;18.216;2023-04-03T05:33:58;10.07;;;2.53;;
12681;SDS011;6405;59.208;18.216;2023-04-03T05:36:24;9.20;;;2.47;;
12681;SDS011;6405;59.208;18.216;2023-04-03T05:38:50;10.70;;;2.20;;
12681;SDS011;6405;59.208;18.216;2023-04-03T05:41:16;7.97;;;2.30;;
12681;SDS011;6405;59.208;18.216;2023-04-03T05:43:42;7.70;;;2.33;;
12681;SDS011;6405;59.208;18.216;2023-04-03T05:46:15;13.63;;;2.83;;
12681;SDS011;6405;59.208;18.216;2023-04-03T05:48:42;8.70;;;1.97;;
12681;SDS011;6405;59.208;18.216;2023-04-03T05:51:19;12.57;;;2.40;;
12681;SDS011;6405;59.208;18.216;2023-04-03T05:53:48;9.70;;;2.30;;
12681;SDS011;6405;59.208;18.216;2023-04-03T05:56:24;8.67;;;2.60;;
12681;SDS011;6405;59.208;18.216;2023-04-03T05:58:50;11.77;;;2.17;;
12681;SDS011;6405;59.208;18.216;2023-04-03T06:01:16;12.70;;;2.73;;
12681;SDS011;6405;59.208;18.216;2023-04-03T06:03:41;8.00;;;2.07;;
12681;SDS011;6405;59.208;18.216;2023-04-03T06:06:07;8.23;;;1.80;;
12681;SDS011;6405;59.208;18.216;2023-04-03T06:08:35;12.47;;;2.50;;
12681;SDS011;6405;59.208;18.216;2023-04-03T06:11:01;6.77;;;1.90;;
12681;SDS011;6405;59.208;18.216;2023-04-03T06:13:27;8.53;;;2.43;;
12681;SDS011;6405;59.208;18.216;2023-04-03T06:15:53;6.53;;;2.10;;
12681;SDS011;6405;59.208;18.216;2023-04-03T06:18:19;12.87;;;1.90;;
12681;SDS011;6405;59.208;18.216;2023-04-03T06:20:45;14.30;;;2.70;;
12681;SDS011;6405;59.208;18.216;2023-04-03T06:23:11;12.10;;;2.50;;
12681;SDS011;6405;59.208;18.216;2023-04-03T06:25:36;7.03;;;2.00;;
12681;SDS011;6405;59.208;18.216;2023-04-03T06:28:02;9.00;;;1.53;;
12681;SDS011;6405;59.208;18.216;2023-04-03T06:30:28;6.90;;;2.10;;
12681;SDS011;6405;59.208;18.216;2023-04-03T06:32:54;4.40;;;1.57;;
12681;SDS011;6405;59.208;18.216;2023-04-03T06:35:20;6.27;;;1.70;;
12681;SDS011;6405;59.208;18.216;2023-04-03T06:37:48;13.37;;;2.23;;
12681;SDS011;6405;59.208;18.216;2023-04-03T06:40:18;5.27;;;1.50;;
12681;SDS011;6405;59.208;18.216;2023-04-03T06:42:46;8.73;;;1.73;;
12681;SDS011;6405;59.208;18.216;2023-04-03T06:45:12;8.90;;;1.63;;
12681;SDS011;6405;59.208;18.216;2023-04-03T06:47:37;7.33;;;1.37;;
12681;SDS011;6405;59.208;18.216;2023-04-03T06:50:03;9.93;;;2.23;;
12681;SDS011;6405;59.208;18.216;2023-04-03T06:52:29;9.10;;;1.77;;
12681;SDS011;6405;59.208;18.216;2023-04-03T06:54:55;9.00;;;2.17;;
12681;SDS011;6405;59.208;18.216;2023-04-03T06:57:24;2.97;;;1.43;;
12681;SDS011;6405;59.208;18.216;2023-04-03T06:59:50;6.87;;;1.70;;
12681;SDS011;6405;59.208;18.216;2023-04-03T07:02:16;6.50;;;1.50;;
12681;SDS011;6405;59.208;18.216;2023-04-03T07:04:42;5.87;;;1.60;;
12681;SDS011;6405;59.208;18.216;2023-04-03T07:07:07;7.03;;;1.20;;
12681;SDS011;6405;59.208;18.216;2023-04-03T07:09:33;2.23;;;1.43;;
12681;SDS011;6405;59.208;18.216;2023-04-03T07:11:59;6.53;;;2.13;;
12681;SDS011;6405;59.208;18.216;2023-04-03T07:14:25;6.57;;;1.43;;
12681;SDS011;6405;59.208;18.216;2023-04-03T07:16:51;8.27;;;1.13;;
12681;SDS011;6405;59.208;18.216;2023-04-03T07:19:16;4.27;;;1.27;;
12681;SDS011;6405;59.208;18.216;2023-04-03T07:21:43;2.43;;;1.30;;
12681;SDS011;6405;59.208;18.216;2023-04-03T07:24:09;5.67;;;1.57;;
12681;SDS011;6405;59.208;18.216;2023-04-03T07:26:35;5.60;;;1.37;;
12681;SDS011;6405;59.208;18.216;2023-04-03T07:29:01;6.23;;;1.40;;
12681;SDS011;6405;59.208;18.216;2023-04-03T07:31:27;7.67;;;1.60;;
12681;SDS011;6405;59.208;18.216;2023-04-03T07:33:53;8.17;;;1.60;;
12681;SDS011;6405;59.208;18.216;2023-04-03T07:36:20;5.17;;;1.20;;
12681;SDS011;6405;59.208;18.216;2023-04-03T07:38:47;5.63;;;1.43;;
12681;SDS011;6405;59.208;18.216;2023-04-03T07:41:14;3.27;;;1.50;;
12681;SDS011;6405;59.208;18.216;2023-04-03T07:43:40;4.60;;;1.17;;
12681;SDS011;6405;59.208;18.216;2023-04-03T07:46:07;2.90;;;0.80;;
12681;SDS011;6405;59.208;18.216;2023-04-03T07:48:34;3.80;;;1.00;;
12681;SDS011;6405;59.208;18.216;2023-04-03T07:51:00;7.40;;;1.20;;
12681;SDS011;6405;59.208;18.216;2023-04-03T07:53:27;8.20;;;1.20;;
12681;SDS011;6405;59.208;18.216;2023-04-03T07:55:53;3.83;;;0.83;;
12681;SDS011;6405;59.208;18.216;2023-04-03T07:58:21;2.40;;;1.07;;
12681;SDS011;6405;59.208;18.216;2023-04-03T08:00:47;4.33;;;1.00;;
12681;SDS011;6405;59.208;18.216;2023-04-03T08:03:13;5.20;;;0.60;;
12681;SDS011;6405;59.208;18.216;2023-04-03T08:05:42;2.43;;;1.17;;
12681;SDS011;6405;59.208;18.216;2023-04-03T08:08:13;3.30;;;1.03;;
12681;SDS011;6405;59.208;18.216;2023-04-03T08:10:41;3.73;;;1.10;;
12681;SDS011;6405;59.208;18.216;2023-04-03T08:13:07;3.50;;;1.20;;
12681;SDS011;6405;59.208;18.216;2023-04-03T08:15:34;4.03;;;1.10;;
12681;SDS011;6405;59.208;18.216;2023-04-03T08:18:00;2.13;;;0.87;;
12681;SDS011;6405;59.208;18.216;2023-04-03T08:20:27;4.27;;;1.13;;
12681;SDS011;6405;59.208;18.216;2023-04-03T08:22:53;5.70;;;0.97;;
12681;SDS011;6405;59.208;18.216;2023-04-03T08:25:19;2.63;;;1.17;;
12681;SDS011;6405;59.208;18.216;2023-04-03T08:27:45;7.50;;;1.10;;
12681;SDS011;6405;59.208;18.216;2023-04-03T08:30:11;3.30;;;1.00;;
12681;SDS011;6405;59.208;18.216;2023-04-03T08:32:37;4.77;;;1.00;;
12681;SDS011;6405;59.208;18.216;2023-04-03T08:35:04;5.23;;;1.70;;
12681;SDS011;6405;59.208;18.216;2023-04-03T08:37:30;2.03;;;0.80;;
12681;SDS011;6405;59.208;18.216;2023-04-03T08:39:55;2.43;;;0.93;;
12681;SDS011;6405;59.208;18.216;2023-04-03T08:45:15;2.93;;;0.97;;
12681;SDS011;6405;59.208;18.216;2023-04-03T08:48:04;4.70;;;1.40;;
12681;SDS011;6405;59.208;18.216;2023-04-03T08:50:41;2.40;;;1.00;;
12681;SDS011;6405;59.208;18.216;2023-04-03T08:53:20;4.60;;;1.40;;
12681;SDS011;6405;59.208;18.216;2023-04-03T08:55:49;6.47;;;1.43;;
12681;SDS011;6405;59.208;18.216;2023-04-03T08:58:22;3.83;;;1.13;;
12681;SDS011;6405;59.208;18.216;2023-04-03T09:01:02;2.33;;;0.97;;
12681;SDS011;6405;59.208;18.216;2023-04-03T09:03:39;3.40;;;1.07;;
12681;SDS011;6405;59.208;18.216;2023-04-03T09:06:16;4.40;;;1.60;;
12681;SDS011;6405;59.208;18.216;2023-04-03T09:23:29;2.80;;;0.67;;
12681;SDS011;6405;59.208;18.216;2023-04-03T09:26:03;4.53;;;0.67;;
12681;SDS011;6405;59.208;18.216;2023-04-03T09:28:34;2.97;;;1.00;;
12681;SDS011;6405;59.208;18.216;2023-04-03T09:31:05;4.30;;;0.87;;
12681;SDS011;6405;59.208;18.216;2023-04-03T09:33:43;1.80;;;0.60;;
12681;SDS011;6405;59.208;18.216;2023-04-03T09:36:10;2.77;;;0.80;;
12681;SDS011;6405;59.208;18.216;2023-04-03T09:38:36;1.97;;;0.73;;
12681;SDS011;6405;59.208;18.216;2023-04-03T09:41:15;1.83;;;0.70;;
12681;SDS011;6405;59.208;18.216;2023-04-03T09:43:43;2.80;;;0.90;;
12681;SDS011;6405;59.208;18.216;2023-04-03T09:46:21;5.33;;;0.63;;
12681;SDS011;6405;59.208;18.216;2023-04-03T09:48:57;2.90;;;1.00;;
12681;SDS011;6405;59.208;18.216;2023-04-03T09:51:26;3.40;;;0.90;;
12681;SDS011;6405;59.208;18.216;2023-04-03T09:53:52;3.43;;;0.80;;
12681;SDS011;6405;59.208;18.216;2023-04-03T09:56:20;5.33;;;0.50;;
12681;SDS011;6405;59.208;18.216;2023-04-03T10:01:38;3.57;;;1.20;;
12681;SDS011;6405;59.208;18.216;2023-04-03T10:04:16;3.40;;;0.90;;
12681;SDS011;6405;59.208;18.216;2023-04-03T10:06:44;4.30;;;0.80;;
12681;SDS011;6405;59.208;18.216;2023-04-03T10:11:58;4.30;;;1.00;;
12681;SDS011;6405;59.208;18.216;2023-04-03T10:14:29;6.20;;;1.27;;
12681;SDS011;6405;59.208;18.216;2023-04-03T10:19:43;3.47;;;0.90;;
12681;SDS011;6405;59.208;18.216;2023-04-03T10:25:16;3.83;;;1.23;;
12681;SDS011;6405;59.208;18.216;2023-04-03T10:27:53;4.00;;;0.70;;
12681;SDS011;6405;59.208;18.216;2023-04-03T10:33:18;4.93;;;0.80;;
12681;SDS011;6405;59.208;18.216;2023-04-03T10:41:43;1.83;;;0.63;;
12681;SDS011;6405;59.208;18.216;2023-04-03T10:44:40;2.67;;;0.70;;
12681;SDS011;6405;59.208;18.216;2023-04-03T10:47:36;3.33;;;0.60;;
12681;SDS011;6405;59.208;18.216;2023-04-03T10:53:24;2.90;;;1.00;;
12681;SDS011;6405;59.208;18.216;2023-04-03T10:59:01;3.40;;;1.10;;
12681;SDS011;6405;59.208;18.216;2023-04-03T11:01:32;3.10;;;0.80;;
12681;SDS011;6405;59.208;18.216;2023-04-03T11:04:00;1.60;;;0.63;;
12681;SDS011;6405;59.208;18.216;2023-04-03T11:06:34;2.83;;;0.70;;
12681;SDS011;6405;59.208;18.216;2023-04-03T11:09:11;3.27;;;0.70;;
12681;SDS011;6405;59.208;18.216;2023-04-03T11:11:44;1.33;;;0.50;;
12681;SDS011;6405;59.208;18.216;2023-04-03T11:22:25;2.63;;;0.73;;
12681;SDS011;6405;59.208;18.216;2023-04-03T11:24:57;1.60;;;0.60;;
12681;SDS011;6405;59.208;18.216;2023-04-03T11:27:24;1.63;;;0.60;;
12681;SDS011;6405;59.208;18.216;2023-04-03T11:29:52;2.93;;;0.80;;
12681;SDS011;6405;59.208;18.216;2023-04-03T11:35:13;1.63;;;0.70;;
12681;SDS011;6405;59.208;18.216;2023-04-03T11:37:42;2.93;;;0.87;;
12681;SDS011;6405;59.208;18.216;2023-04-03T11:43:04;6.40;;;2.67;;
12681;SDS011;6405;59.208;18.216;2023-04-03T11:45:34;2.07;;;0.67;;
12681;SDS011;6405;59.208;18.216;2023-04-03T11:53:38;1.67;;;0.80;;
12681;SDS011;6405;59.208;18.216;2023-04-03T11:58:43;1.67;;;0.60;;
12681;SDS011;6405;59.208;18.216;2023-04-03T12:01:53;2.90;;;1.60;;
12681;SDS011;6405;59.208;18.216;2023-04-03T12:04:26;3.80;;;1.00;;
12681;SDS011;6405;59.208;18.216;2023-04-03T12:06:53;2.37;;;0.60;;
12681;SDS011;6405;59.208;18.216;2023-04-03T12:15:11;2.83;;;0.67;;
12681;SDS011;6405;59.208;18.216;2023-04-03T12:17:48;2.93;;;0.67;;
12681;SDS011;6405;59.208;18.216;2023-04-03T12:21:15;3.80;;;0.80;;
12681;SDS011;6405;59.208;18.216;2023-04-03T12:23:25;1.90;;;0.70;;
12681;SDS011;6405;59.208;18.216;2023-04-03T12:28:46;2.20;;;0.70;;
12681;SDS011;6405;59.208;18.216;2023-04-03T12:31:14;4.40;;;0.73;;
12681;SDS011;6405;59.208;18.216;2023-04-03T12:33:53;1.33;;;0.50;;
12681;SDS011;6405;59.208;18.216;2023-04-03T12:36:42;0.70;;;0.40;;
12681;SDS011;6405;59.208;18.216;2023-04-03T12:45:15;1.83;;;0.40;;
12681;SDS011;6405;59.208;18.216;2023-04-03T12:47:45;2.30;;;0.60;;
12681;SDS011;6405;59.208;18.216;2023-04-03T12:50:24;1.60;;;0.50;;
12681;SDS011;6405;59.208;18.216;2023-04-03T12:53:04;2.00;;;0.50;;
12681;SDS011;6405;59.208;18.216;2023-04-03T12:55:32;1.93;;;0.60;;
12681;SDS011;6405;59.208;18.216;2023-04-03T12:58:12;1.40;;;0.50;;
12681;SDS011;6405;59.208;18.216;2023-04-03T13:00:58;1.63;;;0.70;;
12681;SDS011;6405;59.208;18.216;2023-04-03T13:03:44;0.50;;;0.30;;
12681;SDS011;6405;59.208;18.216;2023-04-03T13:06:26;1.70;;;0.57;;
12681;SDS011;6405;59.208;18.216;2023-04-03T13:08:59;1.80;;;0.40;;
12681;SDS011;6405;59.208;18.216;2023-04-03T13:11:36;0.60;;;0.40;;
12681;SDS011;6405;59.208;18.216;2023-04-03T13:14:14;4.33;;;0.70;;
12681;SDS011;6405;59.208;18.216;2023-04-03T13:19:41;3.07;;;0.73;;
12681;SDS011;6405;59.208;18.216;2023-04-03T13:22:15;1.53;;;0.50;;
12681;SDS011;6405;59.208;18.216;2023-04-03T13:24:53;0.90;;;0.30;;
12681;SDS011;6405;59.208;18.216;2023-04-03T13:27:20;1.23;;;0.57;;
12681;SDS011;6405;59.208;18.216;2023-04-03T13:29:50;1.60;;;0.50;;
12681;SDS011;6405;59.208;18.216;2023-04-03T13:32:19;0.83;;;0.50;;
12681;SDS011;6405;59.208;18.216;2023-04-03T13:34:46;3.10;;;0.43;;
12681;SDS011;6405;59.208;18.216;2023-04-03T13:37:23;1.97;;;0.40;;
12681;SDS011;6405;59.208;18.216;2023-04-03T13:39:59;1.17;;;0.47;;
12681;SDS011;6405;59.208;18.216;2023-04-03T13:42:37;0.67;;;0.30;;
12681;SDS011;6405;59.208;18.216;2023-04-03T13:47:51;0.97;;;0.40;;
12681;SDS011;6405;59.208;18.216;2023-04-03T13:50:24;0.93;;;0.40;;
12681;SDS011;6405;59.208;18.216;2023-04-03T13:55:26;2.30;;;0.47;;
12681;SDS011;6405;59.208;18.216;2023-04-03T13:57:56;1.60;;;0.40;;
12681;SDS011;6405;59.208;18.216;2023-04-03T14:03:27;0.90;;;0.40;;
12681;SDS011;6405;59.208;18.216;2023-04-03T14:05:58;0.60;;;0.40;;
12681;SDS011;6405;59.208;18.216;2023-04-03T14:08:26;1.50;;;0.70;;
12681;SDS011;6405;59.208;18.216;2023-04-03T14:10:52;0.80;;;0.47;;
12681;SDS011;6405;59.208;18.216;2023-04-03T14:13:18;0.40;;;0.30;;
12681;SDS011;6405;59.208;18.216;2023-04-03T14:15:46;1.97;;;0.40;;
12681;SDS011;6405;59.208;18.216;2023-04-03T14:18:14;2.13;;;0.50;;
12681;SDS011;6405;59.208;18.216;2023-04-03T14:20:43;2.77;;;0.60;;
12681;SDS011;6405;59.208;18.216;2023-04-03T14:23:09;2.13;;;0.57;;
12681;SDS011;6405;59.208;18.216;2023-04-03T14:25:35;1.03;;;0.30;;
12681;SDS011;6405;59.208;18.216;2023-04-03T14:28:07;1.73;;;0.70;;
12681;SDS011;6405;59.208;18.216;2023-04-03T14:30:48;0.30;;;0.30;;
12681;SDS011;6405;59.208;18.216;2023-04-03T14:33:17;8.37;;;0.50;;
12681;SDS011;6405;59.208;18.216;2023-04-03T14:35:45;2.27;;;0.70;;
12681;SDS011;6405;59.208;18.216;2023-04-03T14:38:25;1.57;;;0.60;;
12681;SDS011;6405;59.208;18.216;2023-04-03T14:40:53;3.30;;;0.30;;
12681;SDS011;6405;59.208;18.216;2023-04-03T14:43:19;1.43;;;0.50;;
12681;SDS011;6405;59.208;18.216;2023-04-03T14:45:45;1.93;;;0.60;;
12681;SDS011;6405;59.208;18.216;2023-04-03T14:48:15;2.50;;;0.50;;
12681;SDS011;6405;59.208;18.216;2023-04-03T14:50:47;0.63;;;0.40;;
12681;SDS011;6405;59.208;18.216;2023-04-03T14:53:15;1.17;;;0.57;;
12681;SDS011;6405;59.208;18.216;2023-04-03T14:55:43;2.37;;;0.40;;
12681;SDS011;6405;59.208;18.216;2023-04-03T14:58:12;1.80;;;0.63;;
12681;SDS011;6405;59.208;18.216;2023-04-03T15:00:39;4.63;;;0.60;;
12681;SDS011;6405;59.208;18.216;2023-04-03T15:03:05;3.37;;;0.53;;
12681;SDS011;6405;59.208;18.216;2023-04-03T15:05:31;1.23;;;0.50;;
12681;SDS011;6405;59.208;18.216;2023-04-03T15:07:57;2.50;;;0.70;;
12681;SDS011;6405;59.208;18.216;2023-04-03T15:10:26;2.60;;;0.80;;
12681;SDS011;6405;59.208;18.216;2023-04-03T15:12:53;1.13;;;0.40;;
12681;SDS011;6405;59.208;18.216;2023-04-03T15:15:21;3.23;;;0.57;;
12681;SDS011;6405;59.208;18.216;2023-04-03T15:17:50;1.03;;;0.70;;
12681;SDS011;6405;59.208;18.216;2023-04-03T15:20:19;1.03;;;0.40;;
12681;SDS011;6405;59.208;18.216;2023-04-03T15:22:47;3.23;;;0.70;;
12681;SDS011;6405;59.208;18.216;2023-04-03T15:25:13;1.43;;;0.50;;
12681;SDS011;6405;59.208;18.216;2023-04-03T15:27:39;4.50;;;0.90;;
12681;SDS011;6405;59.208;18.216;2023-04-03T15:30:10;1.77;;;0.43;;
12681;SDS011;6405;59.208;18.216;2023-04-03T15:32:39;0.60;;;0.37;;
12681;SDS011;6405;59.208;18.216;2023-04-03T15:35:05;3.60;;;0.60;;
12681;SDS011;6405;59.208;18.216;2023-04-03T15:37:31;0.80;;;0.43;;
12681;SDS011;6405;59.208;18.216;2023-04-03T15:39:57;4.63;;;1.33;;
12681;SDS011;6405;59.208;18.216;2023-04-03T15:42:23;2.27;;;0.57;;
12681;SDS011;6405;59.208;18.216;2023-04-03T15:44:48;2.83;;;0.67;;
12681;SDS011;6405;59.208;18.216;2023-04-03T15:47:14;6.53;;;0.60;;
12681;SDS011;6405;59.208;18.216;2023-04-03T15:49:40;0.83;;;0.43;;
12681;SDS011;6405;59.208;18.216;2023-04-03T15:52:06;2.37;;;0.53;;
12681;SDS011;6405;59.208;18.216;2023-04-03T15:54:31;2.00;;;0.70;;
12681;SDS011;6405;59.208;18.216;2023-04-03T15:56:57;1.13;;;0.60;;
12681;SDS011;6405;59.208;18.216;2023-04-03T15:59:23;1.80;;;0.60;;
12681;SDS011;6405;59.208;18.216;2023-04-03T16:01:49;1.10;;;0.60;;
12681;SDS011;6405;59.208;18.216;2023-04-03T16:04:16;4.60;;;0.60;;
12681;SDS011;6405;59.208;18.216;2023-04-03T16:06:42;1.83;;;0.93;;
12681;SDS011;6405;59.208;18.216;2023-04-03T16:09:08;2.37;;;0.73;;
12681;SDS011;6405;59.208;18.216;2023-04-03T16:11:35;4.67;;;0.70;;
12681;SDS011;6405;59.208;18.216;2023-04-03T16:14:04;3.10;;;0.60;;
12681;SDS011;6405;59.208;18.216;2023-04-03T16:16:30;1.43;;;0.50;;
12681;SDS011;6405;59.208;18.216;2023-04-03T16:18:55;0.83;;;0.50;;
12681;SDS011;6405;59.208;18.216;2023-04-03T16:21:21;1.93;;;0.50;;
12681;SDS011;6405;59.208;18.216;2023-04-03T16:23:47;1.13;;;0.63;;
12681;SDS011;6405;59.208;18.216;2023-04-03T16:26:14;3.85;;;0.57;;
12681;SDS011;6405;59.208;18.216;2023-04-03T16:28:40;3.43;;;0.60;;
12681;SDS011;6405;59.208;18.216;2023-04-03T16:31:06;1.10;;;0.60;;